createdAt,value
2023-03-16T00:02:06.475Z,100471.78
2023-03-16T00:04:37.865Z,100460.94
2023-03-16T00:07:10.634Z,100475.31
2023-03-16T00:09:41.295Z,100470.91
2023-03-16T00:12:17.362Z,100488.75
2023-03-16T00:14:47.484Z,100473.94
2023-03-16T00:17:20.980Z,100484.19
2023-03-16T00:19:55.340Z,100475.09
2023-03-16T00:22:28.830Z,100485.53
2023-03-16T00:24:56.589Z,100498.38
2023-03-16T00:27:26.360Z,100495.06
2023-03-16T00:29:56.114Z,100491.97
2023-03-16T00:32:29.562Z,100503.91
2023-03-16T00:34:57.030Z,100504.09
2023-03-16T00:37:26.683Z,100504.91
2023-03-16T00:39:57.757Z,100501.00
2023-03-16T00:42:30.423Z,100502.31
2023-03-16T00:44:59.239Z,100503.13
2023-03-16T00:47:29.938Z,100498.31
2023-03-16T00:49:57.628Z,100511.16
2023-03-16T00:52:27.348Z,100508.94
2023-03-16T00:54:55.969Z,100505.41
2023-03-16T00:57:25.777Z,100506.53
2023-03-16T00:59:52.940Z,100497.91
2023-03-16T01:02:23.652Z,100504.91
2023-03-16T01:04:54.418Z,100503.63
2023-03-16T01:07:21.995Z,100501.81
2023-03-16T01:09:49.035Z,100506.94
2023-03-16T01:12:19.303Z,100499.91
2023-03-16T01:14:47.253Z,100506.66
2023-03-16T01:17:17.267Z,100507.06
2023-03-16T01:19:45.270Z,100509.03
2023-03-16T01:22:13.155Z,100509.66
2023-03-16T01:24:41.256Z,100513.56
2023-03-16T01:27:09.189Z,100512.44
2023-03-16T01:29:37.816Z,100517.56
2023-03-16T01:32:05.796Z,100515.97
2023-03-16T01:34:34.336Z,100519.38
2023-03-16T01:37:01.865Z,100530.81
2023-03-16T01:39:28.933Z,100526.22
2023-03-16T01:41:55.954Z,100525.38
2023-03-16T01:44:30.668Z,100534.63
2023-03-16T01:46:58.271Z,100533.28
2023-03-16T01:49:36.914Z,100537.00
2023-03-16T01:52:22.595Z,100532.81
2023-03-16T01:55:00.736Z,100534.19
2023-03-16T01:57:35.393Z,100526.25
2023-03-16T02:00:19.999Z,100538.19
2023-03-16T02:02:56.447Z,100526.47
2023-03-16T02:05:54.671Z,100533.69
2023-03-16T02:08:23.106Z,100527.91
2023-03-16T02:10:54.757Z,100532.09
2023-03-16T02:13:24.660Z,100526.34
2023-03-16T02:15:53.687Z,100539.50
2023-03-16T02:18:23.160Z,100543.09
2023-03-16T02:21:12.081Z,100540.31
2023-03-16T02:23:39.132Z,100541.19
2023-03-16T02:26:33.747Z,100545.63
2023-03-16T02:29:39.833Z,100544.41
2023-03-16T02:32:07.124Z,100545.31
2023-03-16T02:34:35.263Z,100541.50
2023-03-16T02:37:03.521Z,100540.66
2023-03-16T02:39:30.608Z,100555.53
2023-03-16T02:41:57.902Z,100549.91
2023-03-16T02:44:36.992Z,100562.41
2023-03-16T02:47:11.362Z,100559.91
2023-03-16T02:49:42.217Z,100568.63
2023-03-16T02:52:09.914Z,100568.06
2023-03-16T02:54:37.163Z,100573.03
2023-03-16T02:57:05.315Z,100574.13
2023-03-16T02:59:32.338Z,100577.47
2023-03-16T03:01:59.539Z,100574.94
2023-03-16T03:04:26.568Z,100573.84
2023-03-16T03:06:53.661Z,100585.66
2023-03-16T03:09:20.985Z,100584.75
2023-03-16T03:11:48.080Z,100587.31
2023-03-16T03:14:16.884Z,100588.09
2023-03-16T03:16:46.891Z,100586.19
2023-03-16T03:19:14.266Z,100581.22
2023-03-16T03:21:41.837Z,100593.88
2023-03-16T03:24:10.110Z,100593.09
2023-03-16T03:26:40.716Z,100595.28
2023-03-16T03:29:07.749Z,100605.59
2023-03-16T03:31:35.648Z,100606.59
2023-03-16T03:34:06.660Z,100610.00
2023-03-16T03:36:35.227Z,100603.66
2023-03-16T03:39:05.199Z,100607.09
2023-03-16T03:41:33.646Z,100614.22
2023-03-16T03:44:01.015Z,100613.97
2023-03-16T03:46:28.555Z,100616.59
2023-03-16T03:48:55.768Z,100616.50
2023-03-16T03:51:22.831Z,100614.44
2023-03-16T03:53:50.021Z,100626.22
2023-03-16T03:56:17.043Z,100622.41
2023-03-16T03:58:44.170Z,100633.00
2023-03-16T04:01:11.201Z,100634.59
2023-03-16T04:03:38.202Z,100622.41
2023-03-16T04:06:07.311Z,100633.59
2023-03-16T04:08:35.635Z,100633.25
2023-03-16T04:11:02.685Z,100633.00
2023-03-16T04:13:30.025Z,100635.19
2023-03-16T04:15:59.249Z,100635.88
2023-03-16T04:18:26.369Z,100637.22
2023-03-16T04:20:53.414Z,100644.38
2023-03-16T04:23:21.883Z,100644.50
2023-03-16T04:25:48.861Z,100649.56
2023-03-16T04:28:18.016Z,100638.81
2023-03-16T04:30:45.178Z,100648.44
2023-03-16T04:33:12.227Z,100644.25
2023-03-16T04:35:39.294Z,100643.69
2023-03-16T04:38:06.386Z,100641.28
2023-03-16T04:40:33.373Z,100649.69
2023-03-16T04:43:00.356Z,100647.78
2023-03-16T04:45:27.472Z,100649.81
2023-03-16T04:47:54.594Z,100655.81
2023-03-16T04:50:22.821Z,100656.06
2023-03-16T04:52:49.975Z,100659.78
2023-03-16T04:55:17.801Z,100661.59
2023-03-16T04:57:44.786Z,100671.44
2023-03-16T05:00:23.406Z,100669.28
2023-03-16T05:02:54.582Z,100677.78
2023-03-16T05:05:22.404Z,100680.72
2023-03-16T05:07:50.304Z,100675.72
2023-03-16T05:10:19.258Z,100683.19
2023-03-16T05:12:46.336Z,100685.44
2023-03-16T05:15:14.168Z,100683.38
2023-03-16T05:17:42.501Z,100682.22
2023-03-16T05:20:16.223Z,100687.09
2023-03-16T05:22:46.501Z,100675.16
2023-03-16T05:25:15.263Z,100665.84
2023-03-16T05:27:44.455Z,100674.22
2023-03-16T05:30:13.697Z,100666.16
2023-03-16T05:32:40.937Z,100675.44
2023-03-16T05:35:10.100Z,100673.16
2023-03-16T05:37:38.209Z,100679.38
2023-03-16T05:40:17.395Z,100663.09
2023-03-16T05:42:50.548Z,100673.41
2023-03-16T05:45:18.228Z,100678.09
2023-03-16T05:47:45.224Z,100672.50
2023-03-16T05:50:14.432Z,100670.75
2023-03-16T05:52:41.611Z,100672.25
2023-03-16T05:55:09.850Z,100672.31
2023-03-16T05:57:36.973Z,100678.56
2023-03-16T06:00:16.752Z,100677.59
2023-03-16T06:02:49.424Z,100680.50
2023-03-16T06:05:19.178Z,100679.88
2023-03-16T06:07:46.219Z,100685.25
2023-03-16T06:10:14.629Z,100686.47
2023-03-16T06:12:42.128Z,100683.56
2023-03-16T06:15:11.379Z,100680.50
2023-03-16T06:17:40.997Z,100694.81
2023-03-16T06:20:11.438Z,100690.22
2023-03-16T06:22:41.569Z,100696.00
2023-03-16T06:25:10.249Z,100702.56
2023-03-16T06:27:37.738Z,100687.38
2023-03-16T06:30:12.089Z,100692.84
2023-03-16T06:32:42.367Z,100692.53
2023-03-16T06:35:10.640Z,100697.91
2023-03-16T06:37:38.115Z,100684.22
2023-03-16T06:40:06.459Z,100689.13
2023-03-16T06:42:33.724Z,100688.72
2023-03-16T06:45:00.988Z,100691.81
2023-03-16T06:47:28.070Z,100688.00
2023-03-16T06:49:55.402Z,100692.13
2023-03-16T06:52:22.796Z,100697.88
2023-03-16T06:54:49.993Z,100698.88
2023-03-16T06:57:18.058Z,100696.25
2023-03-16T06:59:45.158Z,100694.75
2023-03-16T07:02:15.343Z,100700.75
2023-03-16T07:04:42.534Z,100703.75
2023-03-16T07:07:11.719Z,100709.28
2023-03-16T07:09:41.536Z,100718.72
2023-03-16T07:12:10.057Z,100722.38
2023-03-16T07:14:37.551Z,100719.25
2023-03-16T07:17:04.997Z,100717.97
2023-03-16T07:19:32.268Z,100722.16
2023-03-16T07:21:59.568Z,100728.22
2023-03-16T07:24:26.673Z,100718.81
2023-03-16T07:26:53.867Z,100723.53
2023-03-16T07:29:20.881Z,100719.41
2023-03-16T07:31:48.251Z,100723.56
2023-03-16T07:34:15.380Z,100720.38
2023-03-16T07:36:42.428Z,100722.00
2023-03-16T07:39:09.881Z,100715.59
2023-03-16T07:41:36.916Z,100718.41
2023-03-16T07:44:04.324Z,100722.47
2023-03-16T07:46:32.809Z,100727.69
2023-03-16T07:48:59.966Z,100731.59
2023-03-16T07:51:26.966Z,100734.91
2023-03-16T07:53:54.098Z,100730.03
2023-03-16T07:56:21.624Z,100728.00
2023-03-16T07:58:48.673Z,100729.56
2023-03-16T08:01:15.750Z,100731.44
2023-03-16T08:03:43.010Z,100734.00
2023-03-16T08:06:10.639Z,100720.31
2023-03-16T08:08:37.703Z,100720.78
2023-03-16T08:11:04.851Z,100725.59
2023-03-16T08:13:31.871Z,100728.09
2023-03-16T08:16:02.129Z,100731.63
2023-03-16T08:18:31.019Z,100732.34
2023-03-16T08:20:58.715Z,100738.59
2023-03-16T08:23:26.226Z,100732.09
2023-03-16T08:25:58.010Z,100740.84
2023-03-16T08:28:26.087Z,100729.00
2023-03-16T08:30:55.604Z,100734.53
2023-03-16T08:33:23.522Z,100739.56
2023-03-16T08:35:50.820Z,100734.91
2023-03-16T08:38:19.324Z,100744.19
2023-03-16T08:40:49.691Z,100737.38
2023-03-16T08:43:19.119Z,100746.47
2023-03-16T08:45:46.711Z,100750.53
2023-03-16T08:48:14.411Z,100752.22
2023-03-16T08:50:44.289Z,100758.72
2023-03-16T08:53:13.600Z,100758.59
2023-03-16T08:55:41.950Z,100753.09
2023-03-16T08:58:10.469Z,100752.78
2023-03-16T09:00:38.352Z,100759.88
2023-03-16T09:03:06.438Z,100760.63
2023-03-16T09:05:34.157Z,100761.69
2023-03-16T09:08:01.695Z,100760.16
2023-03-16T09:10:29.096Z,100758.13
2023-03-16T09:12:56.785Z,100754.41
2023-03-16T09:15:24.077Z,100751.59
2023-03-16T09:17:51.151Z,100756.94
2023-03-16T09:20:34.570Z,100753.94
2023-03-16T09:23:01.854Z,100760.22
2023-03-16T09:25:29.140Z,100759.09
2023-03-16T09:27:56.377Z,100756.47
2023-03-16T09:30:23.428Z,100766.13
2023-03-16T09:32:50.872Z,100754.63
2023-03-16T09:35:18.202Z,100759.00
2023-03-16T09:38:01.198Z,100760.94
2023-03-16T09:40:33.488Z,100758.75
2023-03-16T09:43:35.937Z,100756.31
2023-03-16T09:46:36.800Z,100754.66
2023-03-16T09:49:06.525Z,100750.44
2023-03-16T09:51:49.802Z,100746.00
2023-03-16T09:55:07.208Z,100764.50
2023-03-16T09:57:40.612Z,100758.91
2023-03-16T10:00:34.252Z,100762.59
2023-03-16T10:03:08.276Z,100766.00
2023-03-16T10:05:37.296Z,100767.84
2023-03-16T10:08:22.438Z,100767.91
2023-03-16T10:11:02.235Z,100757.75
2023-03-16T10:13:48.508Z,100756.97
2023-03-16T10:16:23.984Z,100758.50
2023-03-16T10:19:18.713Z,100763.00
2023-03-16T10:21:46.948Z,100767.09
2023-03-16T10:24:28.660Z,100761.94
2023-03-16T10:27:01.203Z,100773.00
2023-03-16T10:29:36.994Z,100778.38
2023-03-16T10:32:16.620Z,100780.88
2023-03-16T10:34:58.750Z,100783.22
2023-03-16T10:37:30.032Z,100775.56
2023-03-16T10:39:57.384Z,100782.28
2023-03-16T10:42:25.110Z,100783.25
2023-03-16T10:45:01.775Z,100770.75
2023-03-16T10:47:33.656Z,100774.81
2023-03-16T10:50:14.405Z,100784.00
2023-03-16T10:52:47.006Z,100783.47
2023-03-16T10:55:26.945Z,100788.41
2023-03-16T10:57:56.314Z,100778.72
2023-03-16T11:00:34.641Z,100781.97
2023-03-16T11:03:12.555Z,100778.25
2023-03-16T11:05:39.698Z,100779.69
2023-03-16T11:08:13.643Z,100776.91
2023-03-16T11:10:55.638Z,100785.53
2023-03-16T11:13:35.304Z,100780.97
2023-03-16T11:16:24.207Z,100779.22
2023-03-16T11:19:04.140Z,100786.97
2023-03-16T11:22:19.999Z,100780.66
2023-03-16T11:25:20.432Z,100786.81
2023-03-16T11:28:13.008Z,100784.19
2023-03-16T11:31:02.983Z,100786.81
2023-03-16T11:33:32.103Z,100787.38
2023-03-16T11:36:20.435Z,100787.91
2023-03-16T11:39:14.144Z,100786.19
2023-03-16T11:42:09.580Z,100790.13
2023-03-16T11:44:57.483Z,100790.09
2023-03-16T11:48:04.304Z,100792.34
2023-03-16T11:50:49.768Z,100787.72
2023-03-16T11:53:25.549Z,100787.91
2023-03-16T11:56:10.655Z,100790.69
2023-03-16T11:59:14.266Z,100785.75
2023-03-16T12:02:13.361Z,100792.91
2023-03-16T12:05:33.666Z,100802.09
2023-03-16T12:08:38.321Z,100795.72
2023-03-16T12:11:40.949Z,100800.44
2023-03-16T12:14:26.695Z,100799.44
2023-03-16T12:17:15.862Z,100800.16
2023-03-16T12:20:14.063Z,100797.47
2023-03-16T12:22:59.952Z,100803.13
2023-03-16T12:25:40.935Z,100806.81
2023-03-16T12:28:27.730Z,100795.22
2023-03-16T12:31:15.394Z,100813.78
2023-03-16T12:34:09.057Z,100801.69
2023-03-16T12:37:02.596Z,100803.53
2023-03-16T12:40:09.173Z,100801.50
2023-03-16T12:43:08.357Z,100811.13
2023-03-16T12:46:11.810Z,100804.34
2023-03-16T12:48:52.308Z,100808.16
2023-03-16T12:51:19.434Z,100814.16
2023-03-16T12:53:55.339Z,100816.00
2023-03-16T12:56:44.697Z,100813.25
2023-03-16T12:59:21.069Z,100815.22
2023-03-16T13:02:03.670Z,100820.63
2023-03-16T13:04:41.707Z,100818.41
2023-03-16T13:07:22.769Z,100821.41
2023-03-16T13:10:10.086Z,100817.72
2023-03-16T13:12:41.799Z,100822.75
2023-03-16T13:15:22.148Z,100819.91
2023-03-16T13:18:04.601Z,100818.00
2023-03-16T13:20:50.837Z,100822.88
2023-03-16T13:23:22.350Z,100826.50
2023-03-16T13:26:27.159Z,100817.38
2023-03-16T13:28:55.499Z,100817.97
2023-03-16T13:31:35.947Z,100821.53
2023-03-16T13:34:06.921Z,100825.91
2023-03-16T13:36:35.579Z,100814.31
2023-03-16T13:39:23.385Z,100816.81
2023-03-16T13:42:20.960Z,100813.66
2023-03-16T13:44:48.568Z,100814.84
2023-03-16T13:47:20.183Z,100828.97
2023-03-16T13:49:55.929Z,100819.88
2023-03-16T13:52:31.269Z,100825.34
2023-03-16T13:55:01.953Z,100827.75
2023-03-16T13:57:35.547Z,100822.16
2023-03-16T14:00:26.624Z,100818.88
2023-03-16T14:03:14.413Z,100823.28
2023-03-16T14:05:41.643Z,100829.09
2023-03-16T14:08:23.376Z,100814.84
2023-03-16T14:10:53.570Z,100829.06
2023-03-16T14:13:32.337Z,100819.22
2023-03-16T14:16:15.365Z,100832.13
2023-03-16T14:19:06.139Z,100824.03
2023-03-16T14:21:34.776Z,100826.75
2023-03-16T14:24:20.144Z,100826.19
2023-03-16T14:26:48.408Z,100838.09
2023-03-16T14:29:42.623Z,100824.91
2023-03-16T14:32:30.320Z,100831.16
2023-03-16T14:35:10.701Z,100832.59
2023-03-16T14:37:38.396Z,100829.63
2023-03-16T14:40:21.964Z,100831.78
2023-03-16T14:42:49.272Z,100825.19
2023-03-16T14:45:17.619Z,100832.63
2023-03-16T14:47:48.453Z,100832.69
2023-03-16T14:50:25.946Z,100838.84
2023-03-16T14:52:56.562Z,100834.50
2023-03-16T14:55:24.878Z,100834.19
2023-03-16T14:57:51.929Z,100839.19
2023-03-16T15:00:22.175Z,100843.16
2023-03-16T15:03:08.181Z,100849.13
2023-03-16T15:05:42.283Z,100852.19
2023-03-16T15:08:43.518Z,100861.50
2023-03-16T15:11:10.932Z,100861.22
2023-03-16T15:13:58.218Z,100859.88
2023-03-16T15:16:26.139Z,100856.78
2023-03-16T15:18:53.302Z,100861.13
2023-03-16T15:21:25.149Z,100864.91
2023-03-16T15:23:52.315Z,100855.53
2023-03-16T15:26:26.280Z,100858.59
2023-03-16T15:28:57.279Z,100860.00
2023-03-16T15:31:24.567Z,100861.59
2023-03-16T15:33:51.713Z,100862.25
2023-03-16T15:36:22.378Z,100861.28
2023-03-16T15:38:53.224Z,100863.88
2023-03-16T15:41:20.561Z,100864.53
2023-03-16T15:43:47.611Z,100857.34
2023-03-16T15:46:15.090Z,100871.53
2023-03-16T15:48:44.475Z,100873.72
2023-03-16T15:51:27.362Z,100873.81
2023-03-16T15:54:01.885Z,100870.88
2023-03-16T15:56:41.162Z,100873.91
2023-03-16T15:59:17.013Z,100885.84
2023-03-16T16:01:47.639Z,100881.53
2023-03-16T16:04:19.871Z,100888.13
2023-03-16T16:06:48.726Z,100887.16
2023-03-16T16:09:16.430Z,100896.06
2023-03-16T16:11:44.223Z,100887.31
2023-03-16T16:14:16.214Z,100899.44
2023-03-16T16:16:46.145Z,100903.31
2023-03-16T16:19:18.925Z,100906.00
2023-03-16T16:21:47.478Z,100915.41
2023-03-16T16:24:15.643Z,100917.53
2023-03-16T16:26:51.930Z,100909.91
2023-03-16T16:29:24.525Z,100921.06
2023-03-16T16:31:52.383Z,100925.06
2023-03-16T16:34:24.530Z,100925.41
2023-03-16T16:36:52.469Z,100925.31
2023-03-16T16:39:20.664Z,100935.22
2023-03-16T16:41:51.358Z,100928.03
2023-03-16T16:44:27.431Z,100930.72
2023-03-16T16:46:55.554Z,100929.94
2023-03-16T16:49:31.243Z,100931.44
2023-03-16T16:51:59.348Z,100941.56
2023-03-16T16:54:31.111Z,100933.81
2023-03-16T16:57:00.020Z,100934.94
2023-03-16T16:59:37.042Z,100944.97
2023-03-16T17:02:30.703Z,100949.13
2023-03-16T17:04:57.946Z,100944.81
2023-03-16T17:07:25.183Z,100952.72
2023-03-16T17:09:52.280Z,100955.34
2023-03-16T17:12:23.541Z,100959.78
2023-03-16T17:14:51.690Z,100952.78
2023-03-16T17:17:19.164Z,100950.72
2023-03-16T17:19:48.248Z,100965.00
2023-03-16T17:22:28.333Z,100955.72
2023-03-16T17:24:55.656Z,100963.94
2023-03-16T17:27:30.424Z,100964.63
2023-03-16T17:29:58.587Z,100963.69
2023-03-16T17:32:26.657Z,100974.16
2023-03-16T17:34:54.255Z,100972.03
2023-03-16T17:37:23.657Z,100966.84
2023-03-16T17:39:52.056Z,100980.25
2023-03-16T17:42:19.926Z,100976.69
2023-03-16T17:44:53.239Z,100981.88
2023-03-16T17:47:27.556Z,100981.66
2023-03-16T17:49:56.945Z,100984.28
2023-03-16T17:52:26.635Z,100994.03
2023-03-16T17:54:54.832Z,100987.78
2023-03-16T17:57:31.124Z,100994.13
2023-03-16T18:00:00.823Z,100989.03
2023-03-16T18:02:51.568Z,100992.91
2023-03-16T18:05:28.768Z,100995.53
2023-03-16T18:08:01.313Z,100988.97
2023-03-16T18:10:31.327Z,100992.41
2023-03-16T18:13:30.149Z,100996.41
2023-03-16T18:15:58.808Z,100987.34
2023-03-16T18:18:29.609Z,100993.84
2023-03-16T18:21:00.454Z,101008.78
2023-03-16T18:23:33.661Z,101013.97
2023-03-16T18:26:03.395Z,101015.81
2023-03-16T18:28:32.657Z,101020.81
2023-03-16T18:31:00.496Z,101012.09
2023-03-16T18:33:37.382Z,101005.94
2023-03-16T18:36:17.754Z,101020.34
2023-03-16T18:38:50.596Z,101016.00
2023-03-16T18:41:28.365Z,101032.50
2023-03-16T18:44:16.845Z,101029.31
2023-03-16T18:46:44.830Z,101036.13
2023-03-16T18:49:36.205Z,101034.25
2023-03-16T18:52:12.626Z,101031.00
2023-03-16T18:54:40.055Z,101040.22
2023-03-16T18:57:18.793Z,101035.59
2023-03-16T18:59:46.633Z,101035.97
2023-03-16T19:02:23.018Z,101044.31
2023-03-16T19:04:50.298Z,101043.31
2023-03-16T19:07:32.496Z,101047.63
2023-03-16T19:10:05.478Z,101028.97
2023-03-16T19:12:32.641Z,101035.69
2023-03-16T19:14:59.628Z,101029.34
2023-03-16T19:17:26.804Z,101043.28
2023-03-16T19:19:53.976Z,101050.81
2023-03-16T19:22:21.927Z,101053.22
2023-03-16T19:24:55.094Z,101054.03
2023-03-16T19:27:29.049Z,101053.84
2023-03-16T19:29:56.749Z,101061.09
2023-03-16T19:32:24.005Z,101068.41
2023-03-16T19:34:51.431Z,101071.53
2023-03-16T19:37:19.856Z,101069.59
2023-03-16T19:39:50.108Z,101077.56
2023-03-16T19:42:33.882Z,101077.56
2023-03-16T19:45:01.163Z,101076.13
2023-03-16T19:47:35.005Z,101069.72
2023-03-16T19:50:02.034Z,101076.66
2023-03-16T19:52:31.401Z,101077.84
2023-03-16T19:54:58.590Z,101074.22
2023-03-16T19:57:26.567Z,101081.28
2023-03-16T19:59:57.769Z,101076.84
2023-03-16T20:02:39.093Z,101077.22
2023-03-16T20:05:21.464Z,101082.94
2023-03-16T20:07:48.854Z,101077.41
2023-03-16T20:10:26.056Z,101084.75
2023-03-16T20:12:57.598Z,101081.31
2023-03-16T20:15:32.716Z,101074.97
2023-03-16T20:18:00.276Z,101078.97
2023-03-16T20:20:30.994Z,101082.50
2023-03-16T20:22:59.764Z,101090.63
2023-03-16T20:25:33.100Z,101082.94
2023-03-16T20:28:02.197Z,101082.94
2023-03-16T20:30:30.867Z,101082.56
2023-03-16T20:32:58.299Z,101080.22
2023-03-16T20:35:29.476Z,101080.94
2023-03-16T20:37:57.091Z,101082.56
2023-03-16T20:40:24.510Z,101084.03
2023-03-16T20:42:52.362Z,101087.47
2023-03-16T20:45:27.821Z,101092.91
2023-03-16T20:47:55.381Z,101090.28
2023-03-16T20:50:30.763Z,101095.09
2023-03-16T20:52:57.977Z,101093.06
2023-03-16T20:55:29.085Z,101099.53
2023-03-16T20:57:57.512Z,101090.63
2023-03-16T21:00:38.846Z,101089.72
2023-03-16T21:03:22.407Z,101093.72
2023-03-16T21:05:54.034Z,101097.50
2023-03-16T21:08:21.553Z,101091.66
2023-03-16T21:10:51.388Z,101095.97
2023-03-16T21:13:29.597Z,101094.81
2023-03-16T21:16:00.351Z,101095.25
2023-03-16T21:18:27.930Z,101097.81
2023-03-16T21:20:56.289Z,101100.00
2023-03-16T21:23:24.301Z,101086.22
2023-03-16T21:25:56.780Z,101089.28
2023-03-16T21:28:26.708Z,101097.09
2023-03-16T21:30:57.517Z,101104.03
2023-03-16T21:33:38.949Z,101094.72
2023-03-16T21:36:17.196Z,101093.72
2023-03-16T21:38:46.817Z,101099.56
2023-03-16T21:41:14.968Z,101093.44
2023-03-16T21:43:43.106Z,101100.75
2023-03-16T21:46:19.931Z,101100.22
2023-03-16T21:48:58.110Z,101103.91
2023-03-16T21:51:33.596Z,101103.34
2023-03-16T21:54:01.731Z,101099.63
2023-03-16T21:56:29.060Z,101096.91
2023-03-16T21:58:56.186Z,101091.38
2023-03-16T22:01:27.790Z,101094.81
2023-03-16T22:04:01.795Z,101090.81
2023-03-16T22:06:29.774Z,101089.72
2023-03-16T22:08:59.732Z,101094.84
2023-03-16T22:11:31.409Z,101099.13
2023-03-16T22:13:59.628Z,101104.47
2023-03-16T22:16:31.598Z,101108.63
2023-03-16T22:18:59.017Z,101111.75
2023-03-16T22:21:40.372Z,101099.06
2023-03-16T22:24:23.629Z,101115.38
2023-03-16T22:26:51.432Z,101106.81
2023-03-16T22:29:29.121Z,101114.19
2023-03-16T22:32:07.366Z,101109.66
2023-03-16T22:34:48.402Z,101108.53
2023-03-16T22:37:23.104Z,101100.00
2023-03-16T22:39:50.767Z,101107.44
2023-03-16T22:42:31.379Z,101110.06
2023-03-16T22:44:58.694Z,101105.53
2023-03-16T22:47:32.327Z,101104.44
2023-03-16T22:49:59.659Z,101110.34
2023-03-16T22:52:32.759Z,101113.19
2023-03-16T22:55:01.808Z,101107.63
2023-03-16T22:57:29.545Z,101110.66
2023-03-16T22:59:57.399Z,101114.66
2023-03-16T23:02:26.402Z,101118.78
2023-03-16T23:04:53.449Z,101117.59
2023-03-16T23:07:20.519Z,101120.53
2023-03-16T23:09:48.535Z,101116.25
2023-03-16T23:12:21.462Z,101127.34
2023-03-16T23:14:48.710Z,101121.78
2023-03-16T23:17:25.227Z,101116.25
2023-03-16T23:19:52.288Z,101126.19
2023-03-16T23:22:19.410Z,101129.53
2023-03-16T23:24:46.422Z,101130.13
2023-03-16T23:27:22.864Z,101126.41
2023-03-16T23:29:50.070Z,101134.94
2023-03-16T23:32:17.276Z,101129.59
2023-03-16T23:34:44.661Z,101129.38
2023-03-16T23:37:11.974Z,101135.53
2023-03-16T23:39:39.847Z,101135.00
2023-03-16T23:42:07.231Z,101139.13
2023-03-16T23:44:34.775Z,101141.69
2023-03-16T23:47:02.330Z,101147.81
2023-03-16T23:49:32.967Z,101135.44
2023-03-16T23:52:01.869Z,101153.53
2023-03-16T23:54:31.732Z,101147.81
2023-03-16T23:56:59.373Z,101148.75
2023-03-16T23:59:26.715Z,101148.63
